• Join FlightAware (Why Join?)
  • Login
  • US Flag 
07:17PM EDT


 

Airport Tracker/Info


-or-


 

Live Flight TrackerFlight Track Log ✈ VH-SGQ ✈ 15-04-2014 ✈ YBCS / CNS - YBBN / BNE

Flight Track Log - Related Links

Times and Time Zones

All times are in EDT time to prevent confusion due to time zone crossing. See the VH-SGQ flight status page for this flight to view local times or setup timezone preferences in your user account.

Time Position Orientation Groundspeed Altitude Reporting Facility
EDT Latitude Longitude Course Direction KTS MPH feet Rate Location/Type
04:15AM -16.8944 145.7808 52° Northeast 148 170 2,400  Level Aus ATC (RADAR)
04:16AM -16.8579 145.8293 52° Northeast 157 181 5,500 1,800 Climbing Aus ATC (RADAR)
04:17AM -16.9145 145.8503 160° South 177 204 7,600 1,680 Climbing Aus ATC (RADAR)
04:18AM -16.9422 145.8593 163° South 178 205 8,600 1,440 Climbing Aus ATC (RADAR)
04:20AM -17.0563 145.8967 163° South 201 231 11,600 1,320 Climbing Aus ATC (RADAR)
04:21AM -17.0840 145.9060 162° South 205 236 12,200 1,200 Climbing Aus ATC (RADAR)
04:22AM -17.1613 145.9315 163° South 220 253 13,800 1,020 Climbing Aus ATC (RADAR)
04:23AM -17.2490 145.9609 162° South 221 254 15,100 720 Climbing Aus ATC (RADAR)
04:25AM -17.3514 145.9949 162° South 233 268 16,200 780 Climbing Aus ATC (RADAR)
04:27AM -17.4427 146.0256 162° South 222 255 17,600 780 Climbing Aus ATC (RADAR)
04:28AM -17.5535 146.0628 162° South 230 265 18,900 720 Climbing Aus ATC (RADAR)
04:29AM -17.5844 146.0726 163° South 234 269 19,300 660 Climbing Aus ATC (RADAR)
04:31AM -17.7095 146.1509 149° Southeast 249 287 20,700 600 Climbing Aus ATC (RADAR)
04:32AM -17.7432 146.1730 148° Southeast 242 278 21,100 720 Climbing Aus ATC (RADAR)
04:33AM -17.8268 146.2259 149° Southeast 246 283 22,200 720 Climbing Aus ATC (RADAR)
04:34AM -17.8556 146.2442 149° Southeast 240 276 22,500 540 Climbing Aus ATC (RADAR)
04:35AM -17.9240 146.2868 149° Southeast 246 283 23,100 540 Climbing Aus ATC (RADAR)
04:36AM -17.9920 146.3320 148° Southeast 246 283 23,800 480 Climbing Aus ATC (RADAR)
04:37AM -18.0701 146.3838 148° Southeast 251 289 24,400 420 Climbing Aus ATC (RADAR)
04:38AM -18.0947 146.4004 147° Southeast 249 287 24,600 480 Climbing Aus ATC (RADAR)
04:39AM -18.1693 146.4496 148° Southeast 254 292 25,200 480 Climbing Aus ATC (RADAR)
04:39AM -18.2036 146.4729 147° Southeast 252 290 25,500 480 Climbing Aus ATC (RADAR)
04:42AM -18.3374 146.5616 148° Southeast 252 290 26,600 420 Climbing Aus ATC (RADAR)
04:43AM -18.4018 146.6048 148° Southeast 254 292 27,000 240 Climbing Aus ATC (RADAR)
04:43AM -18.4274 146.6216 148° Southeast 260 299 27,000  Level Aus ATC (RADAR)
04:44AM -18.4592 146.6424 148° Southeast 267 307 27,000  Level Aus ATC (RADAR)
04:45AM -18.5412 146.6966 148° Southeast 282 325 27,000  Level Aus ATC (RADAR)
04:46AM -18.5805 146.7227 148° Southeast 286 329 27,000  Level Aus ATC (RADAR)
04:47AM -18.6606 146.7759 148° Southeast 293 337 27,000  Level Aus ATC (RADAR)
04:48AM -18.7704 146.8495 148° Southeast 297 342 27,000  Level Aus ATC (RADAR)
04:49AM -18.8286 146.8882 148° Southeast 297 342 27,000  Level Aus ATC (RADAR)
04:50AM -18.8635 146.9115 148° Southeast 298 343 27,000  Level Aus ATC (RADAR)
04:50AM -18.9040 146.9387 148° Southeast 297 342 27,000  Level Aus ATC (RADAR)
04:52AM -19.0379 147.0283 148° Southeast 298 343 27,000  Level Aus ATC (RADAR)
04:54AM -19.1436 147.0997 147° Southeast 299 344 27,000  Level Aus ATC (RADAR)
04:55AM -19.2266 147.1554 148° Southeast 303 349 27,000  Level Aus ATC (RADAR)
04:55AM -19.2739 147.1869 148° Southeast 300 345 27,000  Level Aus ATC (RADAR)
04:57AM -19.3678 147.2500 148° Southeast 300 345 27,000  Level Aus ATC (RADAR)
04:58AM -19.4859 147.3293 148° Southeast 304 350 27,000  Level Aus ATC (RADAR)
05:00AM -19.5799 147.3930 147° Southeast 300 345 27,000  Level Aus ATC (RADAR)
05:00AM -19.6151 147.4170 147° Southeast 301 346 27,000  Level Aus ATC (RADAR)
05:01AM -19.6977 147.4729 147° Southeast 301 346 27,000  Level Aus ATC (RADAR)
05:02AM -19.7214 147.4890 148° Southeast 301 346 27,000  Level Aus ATC (RADAR)
05:03AM -19.8342 147.5653 148° Southeast 302 348 27,000  Level Aus ATC (RADAR)
05:04AM -19.9116 147.6182 147° Southeast 306 352 27,000  Level Aus ATC (RADAR)
05:05AM -19.9473 147.6422 148° Southeast 302 348 27,000  Level Aus ATC (RADAR)
05:06AM -20.0307 147.6985 148° Southeast 304 350 27,000  Level Aus ATC (RADAR)
05:07AM -20.0842 147.7353 147° Southeast 306 352 27,000  Level Aus ATC (RADAR)
05:09AM -20.2094 147.8213 147° Southeast 308 354 27,000  Level Aus ATC (RADAR)
05:10AM -20.3178 147.8948 148° Southeast 308 354 27,000  Level Aus ATC (RADAR)
05:11AM -20.3601 147.9232 148° Southeast 310 357 27,000  Level Aus ATC (RADAR)
05:12AM -20.4628 147.9942 147° Southeast 312 359 27,000  Level Aus ATC (RADAR)
05:14AM -20.5793 148.0740 147° Southeast 315 362 27,000  Level Aus ATC (RADAR)
05:15AM -20.6709 148.1370 147° Southeast 313 360 27,000  Level Aus ATC (RADAR)
05:15AM -20.7074 148.1623 147° Southeast 309 356 27,000  Level Aus ATC (RADAR)
05:17AM -20.8123 148.2344 147° Southeast 319 367 27,000  Level Aus ATC (RADAR)
05:17AM -20.8491 148.2598 147° Southeast 314 361 27,000  Level Aus ATC (RADAR)
05:19AM -20.9848 148.3529 147° Southeast 313 360 27,000  Level Aus ATC (RADAR)
05:21AM -21.0904 148.4269 147° Southeast 319 367 27,000  Level Aus ATC (RADAR)
05:21AM -21.1408 148.4610 148° Southeast 321 369 27,000  Level Aus ATC (RADAR)
05:23AM -21.2401 148.5300 147° Southeast 319 367 27,000  Level Aus ATC (RADAR)
05:24AM -21.3461 148.6040 147° Southeast 320 368 27,000  Level Aus ATC (RADAR)
05:25AM -21.4395 148.6696 147° Southeast 319 367 27,000  Level Aus ATC (RADAR)
05:26AM -21.4895 148.7049 147° Southeast 320 368 27,000  Level Aus ATC (RADAR)
05:27AM -21.6015 148.7845 147° Southeast 320 368 27,000  Level Aus ATC (RADAR)
05:28AM -21.6458 148.8150 147° Southeast 321 369 27,000  Level Aus ATC (RADAR)
05:29AM -21.7594 148.8936 147° Southeast 319 367 27,000  Level Aus ATC (RADAR)
05:31AM -21.8409 148.9519 146° Southeast 323 372 27,000  Level Aus ATC (RADAR)
05:31AM -21.8982 148.9905 148° Southeast 324 373 27,000  Level Aus ATC (RADAR)
05:32AM -21.9862 149.0539 146° Southeast 326 375 27,000  Level Aus ATC (RADAR)
05:33AM -22.0244 149.0809 147° Southeast 329 379 27,000  Level Aus ATC (RADAR)
05:34AM -22.1320 149.1566 147° Southeast 326 375 27,000  Level Aus ATC (RADAR)
05:37AM -22.3033 149.2774 147° Southeast 329 379 27,000  Level Aus ATC (RADAR)
05:38AM -22.3990 149.3448 147° Southeast 329 379 27,000  Level Aus ATC (RADAR)
05:38AM -22.4378 149.3715 147° Southeast 331 381 27,000  Level Aus ATC (RADAR)
05:39AM -22.5206 149.4313 146° Southeast 330 380 27,000  Level Aus ATC (RADAR)
05:41AM -22.6430 149.5164 147° Southeast 329 379 27,000  Level Aus ATC (RADAR)
05:42AM -22.7245 149.5762 146° Southeast 330 380 27,000  Level Aus ATC (RADAR)
05:42AM -22.7503 149.5938 148° Southeast 330 380 27,000  Level Aus ATC (RADAR)
05:44AM -22.8463 149.6622 147° Southeast 332 382 27,000  Level Aus ATC (RADAR)
05:44AM -22.8980 149.6994 146° Southeast 333 383 27,000  Level Aus ATC (RADAR)
05:45AM -22.9829 149.7594 147° Southeast 337 388 27,000  Level Aus ATC (RADAR)
05:47AM -23.1399 149.8719 147° Southeast 339 390 27,000  Level Aus ATC (RADAR)
05:49AM -23.2325 149.9377 147° Southeast 339 390 27,000  Level Aus ATC (RADAR)
05:49AM -23.2854 149.9756 147° Southeast 341 392 27,000  Level Aus ATC (RADAR)
05:51AM -23.3830 150.0469 146° Southeast 338 389 27,000  Level Aus ATC (RADAR)
05:52AM -23.5341 150.1551 147° Southeast 338 389 27,000  Level Aus ATC (RADAR)
05:54AM -23.6327 150.2258 147° Southeast 340 391 27,000  Level Aus ATC (RADAR)
05:54AM -23.6721 150.2540 147° Southeast 340 391 27,000  Level Aus ATC (RADAR)
05:55AM -23.7644 150.3208 146° Southeast 341 392 27,000  Level Aus ATC (RADAR)
05:56AM -23.8106 150.3544 146° Southeast 342 394 27,000  Level Aus ATC (RADAR)
05:57AM -23.9291 150.4402 146° Southeast 340 391 27,000  Level Aus ATC (RADAR)
05:58AM -24.0020 150.4930 147° Southeast 342 394 27,000  Level Aus ATC (RADAR)
05:59AM -24.0216 150.5074 146° Southeast 341 392 27,000  Level Aus ATC (RADAR)
05:59AM -24.0745 150.5457 146° Southeast 342 394 27,000  Level Aus ATC (RADAR)
06:00AM -24.1340 150.5892 146° Southeast 342 394 27,000  Level Aus ATC (RADAR)
06:01AM -24.1870 150.6278 146° Southeast 342 394 27,000  Level Aus ATC (RADAR)
06:02AM -24.3055 150.7151 146° Southeast 342 394 27,000  Level Aus ATC (RADAR)
06:04AM -24.4438 150.8166 146° Southeast 341 392 27,000  Level Aus ATC (RADAR)
06:05AM -24.5426 150.8898 146° Southeast 343 395 27,000  Level Aus ATC (RADAR)
06:06AM -24.5756 150.9141 146° Southeast 343 395 27,000  Level Aus ATC (RADAR)
06:07AM -24.6798 150.9901 146° Southeast 334 384 27,000  Level Aus ATC (RADAR)
06:08AM -24.7220 151.0213 146° Southeast 313 360 27,000  Level Aus ATC (RADAR)
06:09AM -24.8241 151.0968 146° Southeast 287 330 27,000  Level Aus ATC (RADAR)
06:10AM -24.9009 151.1543 146° Southeast 286 329 27,000  Level Aus ATC (RADAR)
06:11AM -24.9458 151.1877 146° Southeast 292 336 27,000  Level Aus ATC (RADAR)
06:12AM -25.0215 151.2433 146° Southeast 303 349 27,000  Level Aus ATC (RADAR)
06:13AM -25.0625 151.2737 146° Southeast 303 349 27,000  Level Aus ATC (RADAR)
06:14AM -25.1325 151.3258 146° Southeast 304 350 27,000  Level Aus ATC (RADAR)
06:15AM -25.2324 151.4013 146° Southeast 309 356 27,100  Climbing Aus ATC (RADAR)
06:15AM -25.2624 151.4231 147° Southeast 309 356 27,100  Level Aus ATC (RADAR)
06:16AM -25.3379 151.4781 147° Southeast 297 342 27,100  Level Aus ATC (RADAR)
06:17AM -25.3712 151.5040 145° Southeast 292 336 27,100  Level Aus ATC (RADAR)
06:17AM -25.4042 151.5430 133° Southeast 291 335 27,100  Level Aus ATC (RADAR)
06:19AM -25.4689 151.6382 127° Southeast 306 352 27,100  Level Aus ATC (RADAR)
06:20AM -25.5225 151.7133 128° Southeast 310 357 27,100  Level Aus ATC (RADAR)
06:20AM -25.5493 151.7516 128° Southeast 312 359 27,100  Level Aus ATC (RADAR)
06:21AM -25.6131 151.8414 128° Southeast 316 364 27,100  Level Aus ATC (RADAR)
06:22AM -25.6492 151.8936 127° Southeast 316 364 27,100  Level Aus ATC (RADAR)
06:23AM -25.7138 151.9825 129° Southeast 314 361 27,100  Level Aus ATC (RADAR)
06:24AM -25.7777 152.0724 128° Southeast 314 361 27,100  Level Aus ATC (RADAR)
06:25AM -25.8362 152.1555 128° Southeast 314 361 27,100  Level Aus ATC (RADAR)
06:26AM -25.8632 152.1935 128° Southeast 311 358 27,100  Level Aus ATC (RADAR)
06:27AM -25.9304 152.2892 128° Southeast 309 356 27,100  Level Aus ATC (RADAR)
06:28AM -25.9706 152.3462 128° Southeast 309 356 27,100  Level Aus ATC (RADAR)
06:29AM -26.0238 152.4224 128° Southeast 312 359 27,100 -780 Level Aus ATC (RADAR)
06:31AM -26.1640 152.5662 137° Southeast 343 395 24,800 -1,320 Descending Aus ATC (RADAR)
06:32AM -26.2535 152.6487 140° Southeast 320 368 22,800 -1,620 Descending Aus ATC (RADAR)
06:33AM -26.2874 152.6777 143° Southeast 304 350 22,000 -1,200 Descending Aus ATC (RADAR)
06:34AM -26.3615 152.6798 179° South 236 272 20,900 -1,020 Descending Aus ATC (RADAR)
06:34AM -26.3928 152.6738 190° South 230 265 20,400 -1,320 Descending Aus ATC (RADAR)
06:36AM -26.4858 152.6918 170° South 242 278 18,500 -1,380 Descending Aus ATC (RADAR)
06:37AM -26.5558 152.7097 167° South 236 272 17,100 -1,320 Descending Aus ATC (RADAR)
06:37AM -26.5821 152.7169 166° South 231 266 16,600 -1,380 Descending Aus ATC (RADAR)
06:38AM -26.6558 152.7373 166° South 261 300 15,100 -1,440 Descending Aus ATC (RADAR)
06:39AM -26.6871 152.7461 166° South 272 313 14,500 -1,500 Descending Aus ATC (RADAR)
06:39AM -26.7313 152.7575 167° South 278 320 13,600 -1,560 Descending Aus ATC (RADAR)
06:41AM -26.8531 152.8262 153° Southeast 274 315 10,900 -1,500 Descending Aus ATC (RADAR)
06:42AM -26.9127 152.8617 152° Southeast 258 297 9,600 -1,440 Descending Aus ATC (RADAR)
06:42AM -26.9388 152.8767 153° Southeast 251 289 9,000 -1,440 Descending Aus ATC (RADAR)
06:43AM -26.9788 152.9012 151° Southeast 241 277 8,100 -1,320 Descending Aus ATC (RADAR)
06:44AM -27.0404 152.9387 152° Southeast 226 260 6,700 -1,320 Descending Aus ATC (RADAR)
06:45AM -27.0726 152.9583 152° Southeast 222 255 6,000 -720 Descending Aus ATC (RADAR)
06:47AM -27.1479 153.0040 152° Southeast 144 166 5,100 -660 Descending Aus ATC (RADAR)
06:47AM -27.1742 153.0197 152° Southeast 143 165 4,400 -900 Descending Aus ATC (RADAR)
06:48AM -27.1899 153.0280 155° Southeast 146 168 4,100 -840 Descending Aus ATC (RADAR)
06:48AM -27.2141 153.0388 158° South 160 184 3,600 -960 Descending Aus ATC (RADAR)
06:49AM -27.2632 153.0582 161° South 170 196 2,500 -1,080 Descending Aus ATC (RADAR)
06:50AM -27.2838 153.0688 155° Southeast 161 185 1,900 -900 Descending Aus ATC (RADAR)
06:50AM -27.3002 153.0814 146° Southeast 141 162 1,600 -780 Descending Aus ATC (RADAR)
06:52AM -27.3527 153.1220 146° Southeast 119 137 200 -780 Descending Aus ATC (RADAR)